Time;durP1;ratioP1;P1;durP2;ratioP2;P2;SDS_P1;SDS_P2;PMS_P1;PMS_P2;Temp;Humidity;BMP_temperature;BMP_pressure;BME280_temperature;BME280_humidity;BME280_pressure;Samples;Min_cycle;Max_cycle;Signal;HPM_P1;HPM_P2
2022/01/24 00:01:49;;;;;;;7.40;4.63;;;;;;;;;;5124788;27;20126;-62
2022/01/24 00:04:15;;;;;;;6.85;4.70;;;;;;;;;;5132937;27;20039;-61
2022/01/24 00:06:42;;;;;;;6.63;4.55;;;;;;;;;;5131742;27;20038;-61
2022/01/24 00:09:10;;;;;;;7.20;4.18;;;;;;;;;;5125367;27;20040;-62
2022/01/24 00:11:59;;;;;;;6.07;4.40;;;;;;;;;;5133360;27;20616;-62
2022/01/24 00:17:16;;;;;;;9.95;4.82;;;;;;;;;;5131756;27;20043;-61
2022/01/24 00:28:19;;;;;;;8.10;5.50;;;;;;;;;;5071542;28;20044;-61
2022/01/24 00:30:45;;;;;;;7.22;5.00;;;;;;;;;;5071326;28;20040;-61
2022/01/24 00:33:11;;;;;;;7.10;5.28;;;;;;;;;;5078791;28;20031;-63
2022/01/24 00:35:37;;;;;;;7.22;5.15;;;;;;;;;;5054520;28;20053;-61
2022/01/24 00:38:03;;;;;;;7.65;5.80;;;;;;;;;;5075030;28;20052;-62
2022/01/24 00:40:34;;;;;;;7.15;5.30;;;;;;;;;;5075145;28;20048;-63
2022/01/24 00:43:01;;;;;;;8.60;5.57;;;;;;;;;;5079598;28;20414;-60
2022/01/24 00:45:34;;;;;;;6.78;5.25;;;;;;;;;;5086138;28;20044;-62
2022/01/24 00:55:57;;;;;;;9.10;6.30;;;;;;;;;;5131964;27;20386;-62
2022/01/24 00:58:23;;;;;;;9.85;6.07;;;;;;;;;;5130518;27;20054;-62
2022/01/24 01:00:49;;;;;;;9.93;6.43;;;;;;;;;;5129525;27;20042;-62
2022/01/24 01:03:17;;;;;;;13.43;7.63;;;;;;;;;;5133480;27;20455;-62
2022/01/24 01:06:02;;;;;;;14.63;8.32;;;;;;;;;;5131161;27;20086;-62
2022/01/24 01:19:29;;;;;;;13.15;9.23;;;;;;;;;;5130951;27;20521;-62
2022/01/24 01:21:55;;;;;;;16.73;9.07;;;;;;;;;;5129394;27;20515;-62
2022/01/24 01:24:23;;;;;;;15.68;8.98;;;;;;;;;;5129395;27;20076;-62
2022/01/24 01:26:58;;;;;;;14.73;9.57;;;;;;;;;;5132197;27;20047;-62
2022/01/24 01:29:30;;;;;;;17.10;8.77;;;;;;;;;;5123423;27;20496;-62
2022/01/24 01:32:15;;;;;;;14.45;9.13;;;;;;;;;;5129031;27;20043;-63
2022/01/24 01:40:08;;;;;;;14.80;9.68;;;;;;;;;;5120890;27;20096;-62
2022/01/24 01:53:54;;;;;;;15.45;10.10;;;;;;;;;;5128779;27;20075;-62
2022/01/24 01:56:18;;;;;;;16.85;9.73;;;;;;;;;;5131241;27;20092;-62
2022/01/24 01:58:44;;;;;;;14.70;9.82;;;;;;;;;;5126985;27;20051;-62
2022/01/24 02:01:10;;;;;;;15.55;9.05;;;;;;;;;;5133835;27;20099;-62
2022/01/24 02:03:36;;;;;;;15.25;9.05;;;;;;;;;;5129950;27;20431;-61
2022/01/24 02:06:02;;;;;;;14.18;9.05;;;;;;;;;;5120916;27;20081;-61
2022/01/24 02:08:31;;;;;;;16.83;10.27;;;;;;;;;;5125444;27;20164;-62
2022/01/24 02:10:58;;;;;;;16.38;10.27;;;;;;;;;;5130965;27;20713;-61
2022/01/24 02:13:25;;;;;;;15.15;9.27;;;;;;;;;;5129206;27;20078;-61
2022/01/24 02:18:37;;;;;;;;;;;;;;;;;;5131881;27;20452;-62
2022/01/24 02:21:26;;;;;;;14.73;9.95;;;;;;;;;;5127912;27;19946;-62
2022/01/24 02:23:56;;;;;;;15.02;9.55;;;;;;;;;;5129281;27;20038;-62
2022/01/24 02:26:22;;;;;;;14.20;9.63;;;;;;;;;;5130037;27;20450;-61
2022/01/24 02:34:01;;;;;;;14.82;9.88;;;;;;;;;;5130500;27;20689;-62
2022/01/24 02:36:27;;;;;;;16.70;9.93;;;;;;;;;;5124599;27;20048;-62
2022/01/24 02:49:31;;;;;;;12.60;8.95;;;;;;;;;;5130249;27;20046;-62
2022/01/24 02:52:07;;;;;;;12.07;8.20;;;;;;;;;;5111840;28;20075;-61
2022/01/24 02:54:34;;;;;;;13.68;8.95;;;;;;;;;;5129936;27;20085;-62
2022/01/24 02:57:01;;;;;;;13.50;9.35;;;;;;;;;;5126152;27;20046;-62
2022/01/24 02:59:27;;;;;;;12.63;8.73;;;;;;;;;;5130342;27;20039;-63
2022/01/24 03:01:53;;;;;;;12.70;8.63;;;;;;;;;;5129449;27;20165;-63
2022/01/24 03:04:20;;;;;;;11.32;8.02;;;;;;;;;;5130007;27;20047;-62
2022/01/24 03:06:46;;;;;;;11.32;8.18;;;;;;;;;;5129056;27;20389;-63
2022/01/24 03:09:12;;;;;;;11.50;8.02;;;;;;;;;;5130163;28;20397;-61
2022/01/24 03:12:39;;;;;;;10.80;7.88;;;;;;;;;;5117898;28;20043;-61
2022/01/24 03:14:26;;;;;;;11.20;7.45;;;;;;;;;;5124440;27;20481;-62
2022/01/24 03:16:52;;;;;;;12.48;6.90;;;;;;;;;;5124733;27;20043;-62
2022/01/24 03:19:18;;;;;;;9.45;6.95;;;;;;;;;;5130783;28;20053;-62
2022/01/24 03:21:44;;;;;;;9.43;6.47;;;;;;;;;;5112702;27;20051;-63
2022/01/24 03:24:14;;;;;;;11.20;6.82;;;;;;;;;;5128267;28;20150;-61
2022/01/24 03:26:41;;;;;;;9.52;6.63;;;;;;;;;;5128625;27;20579;-61
2022/01/24 03:29:07;;;;;;;10.15;7.03;;;;;;;;;;5129624;28;20039;-63
2022/01/24 03:31:34;;;;;;;11.13;7.28;;;;;;;;;;5129809;27;20076;-62
2022/01/24 03:34:00;;;;;;;9.50;6.82;;;;;;;;;;5128718;28;20039;-61
2022/01/24 03:36:26;;;;;;;10.15;6.95;;;;;;;;;;5127932;27;20035;-62
2022/01/24 03:38:52;;;;;;;9.25;6.72;;;;;;;;;;5128723;27;20405;-63
2022/01/24 03:41:18;;;;;;;10.48;6.65;;;;;;;;;;5133258;27;20035;-63
2022/01/24 03:43:44;;;;;;;11.05;7.07;;;;;;;;;;5134745;27;20051;-62
2022/01/24 03:46:24;;;;;;;8.70;6.10;;;;;;;;;;5130525;27;20491;-63
2022/01/24 03:48:56;;;;;;;8.77;6.70;;;;;;;;;;5118751;27;20039;-61
2022/01/24 03:51:23;;;;;;;8.48;6.05;;;;;;;;;;5133151;27;20113;-62
2022/01/24 03:53:49;;;;;;;8.85;5.90;;;;;;;;;;5133984;27;20057;-61
2022/01/24 03:56:16;;;;;;;7.93;5.90;;;;;;;;;;5131624;27;20031;-61
2022/01/24 03:58:43;;;;;;;8.68;5.80;;;;;;;;;;5131740;27;20766;-63
2022/01/24 04:01:09;;;;;;;9.40;6.18;;;;;;;;;;5133552;27;20096;-62
2022/01/24 04:03:36;;;;;;;10.07;6.72;;;;;;;;;;5134226;27;20438;-62
2022/01/24 04:06:03;;;;;;;8.90;6.43;;;;;;;;;;5132862;27;20031;-62
2022/01/24 04:08:30;;;;;;;9.23;6.15;;;;;;;;;;5128333;27;20087;-63
2022/01/24 04:10:57;;;;;;;10.88;6.88;;;;;;;;;;5131478;27;20409;-61
2022/01/24 04:13:34;;;;;;;11.20;6.97;;;;;;;;;;5134726;27;20077;-62
2022/01/24 04:24:00;;;;;;;10.10;6.60;;;;;;;;;;5129498;27;20146;-60
2022/01/24 04:26:27;;;;;;;11.93;7.50;;;;;;;;;;5115097;27;20362;-63
2022/01/24 04:28:53;;;;;;;10.25;6.85;;;;;;;;;;5119436;27;20374;-63
2022/01/24 04:31:19;;;;;;;11.13;7.38;;;;;;;;;;5132299;27;20058;-62
2022/01/24 04:33:45;;;;;;;11.43;7.20;;;;;;;;;;5131670;27;20039;-62
2022/01/24 04:36:12;;;;;;;11.98;7.82;;;;;;;;;;5133257;27;20031;-62
2022/01/24 04:38:38;;;;;;;10.68;7.70;;;;;;;;;;5125371;27;20031;-62
2022/01/24 04:41:13;;;;;;;13.20;8.25;;;;;;;;;;5131761;27;20031;-63
2022/01/24 04:43:53;;;;;;;11.32;7.63;;;;;;;;;;5122390;27;20039;-61
2022/01/24 04:46:45;;;;;;;10.30;7.30;;;;;;;;;;5129629;27;20081;-61
2022/01/24 04:54:45;;;;;;;11.55;8.48;;;;;;;;;;5131083;27;20085;-62
2022/01/24 04:57:13;;;;;;;12.13;8.38;;;;;;;;;;5133649;27;20043;-62
2022/01/24 04:59:40;;;;;;;12.52;8.88;;;;;;;;;;5132977;27;20054;-62
2022/01/24 05:02:06;;;;;;;12.75;8.60;;;;;;;;;;5132706;27;20130;-61
2022/01/24 05:04:33;;;;;;;12.52;9.02;;;;;;;;;;5130508;27;20035;-62
2022/01/24 05:06:59;;;;;;;12.77;8.30;;;;;;;;;;5132691;27;20047;-61
2022/01/24 05:09:27;;;;;;;17.02;10.60;;;;;;;;;;5128652;27;20074;-62
2022/01/24 05:25:51;;;;;;;15.02;9.18;;;;;;;;;;5066194;28;20103;-62
2022/01/24 05:28:18;;;;;;;14.40;9.75;;;;;;;;;;5077644;28;20043;-63
2022/01/24 05:30:44;;;;;;;14.82;9.25;;;;;;;;;;5069925;28;20055;-62
2022/01/24 05:33:11;;;;;;;13.43;9.13;;;;;;;;;;5067703;28;20045;-63
2022/01/24 05:35:37;;;;;;;14.15;9.50;;;;;;;;;;5066060;28;20076;-62
2022/01/24 05:38:03;;;;;;;16.58;10.32;;;;;;;;;;5065223;28;20068;-62
2022/01/24 05:40:29;;;;;;;16.13;9.18;;;;;;;;;;5088647;28;20044;-62
2022/01/24 05:42:55;;;;;;;14.95;9.40;;;;;;;;;;5083778;28;20119;-62
2022/01/24 05:45:21;;;;;;;15.80;9.63;;;;;;;;;;5048742;28;20132;-63
2022/01/24 05:47:47;;;;;;;13.27;8.70;;;;;;;;;;5067341;28;20065;-62
2022/01/24 05:50:13;;;;;;;13.30;8.63;;;;;;;;;;5091789;27;20043;-63
2022/01/24 05:52:39;;;;;;;14.40;8.98;;;;;;;;;;5128565;27;20126;-62
2022/01/24 05:55:06;;;;;;;14.32;9.68;;;;;;;;;;5130347;27;20571;-62
2022/01/24 05:57:32;;;;;;;14.13;9.20;;;;;;;;;;5129004;27;20123;-62
2022/01/24 05:59:58;;;;;;;18.85;9.63;;;;;;;;;;5125741;27;20134;-62
2022/01/24 06:02:24;;;;;;;15.65;9.52;;;;;;;;;;5131269;27;20039;-62
2022/01/24 06:04:50;;;;;;;19.42;11.00;;;;;;;;;;5129433;27;20042;-64
2022/01/24 06:07:16;;;;;;;17.05;10.43;;;;;;;;;;5127838;27;20103;-62
2022/01/24 06:09:42;;;;;;;15.20;10.27;;;;;;;;;;5115851;27;20409;-63
2022/01/24 06:12:10;;;;;;;18.65;10.02;;;;;;;;;;5112968;27;20043;-62
2022/01/24 06:14:36;;;;;;;16.33;10.13;;;;;;;;;;5128643;27;20443;-62
2022/01/24 06:17:02;;;;;;;14.80;9.80;;;;;;;;;;5128296;27;20393;-62
2022/01/24 06:19:28;;;;;;;19.00;11.23;;;;;;;;;;5130016;27;20183;-62
2022/01/24 06:21:54;;;;;;;16.20;9.65;;;;;;;;;;5130220;27;20070;-62
2022/01/24 06:24:20;;;;;;;18.08;10.40;;;;;;;;;;5130521;27;20035;-62
2022/01/24 06:26:46;;;;;;;23.23;13.20;;;;;;;;;;5130164;27;20165;-62
2022/01/24 06:29:12;;;;;;;17.95;11.05;;;;;;;;;;5128492;27;20124;-61
2022/01/24 06:31:38;;;;;;;21.40;12.90;;;;;;;;;;5114309;27;20389;-61
2022/01/24 06:34:05;;;;;;;20.60;11.80;;;;;;;;;;5130035;27;20039;-63
2022/01/24 06:36:31;;;;;;;22.83;11.98;;;;;;;;;;5129290;27;20039;-62
2022/01/24 06:38:59;;;;;;;20.00;11.43;;;;;;;;;;5129405;27;20039;-61
2022/01/24 06:41:30;;;;;;;18.52;11.68;;;;;;;;;;5122032;27;20066;-63
2022/01/24 06:43:56;;;;;;;22.65;12.38;;;;;;;;;;5131014;27;20466;-63
2022/01/24 06:46:22;;;;;;;19.98;11.57;;;;;;;;;;5126620;28;20039;-61
2022/01/24 06:48:48;;;;;;;22.25;13.30;;;;;;;;;;5124612;28;20390;-62
2022/01/24 06:51:14;;;;;;;22.90;12.32;;;;;;;;;;5127902;27;20465;-62
2022/01/24 06:53:41;;;;;;;30.83;15.38;;;;;;;;;;5121695;27;20350;-63
2022/01/24 06:56:07;;;;;;;25.17;14.18;;;;;;;;;;5112513;28;20035;-63
2022/01/24 06:58:34;;;;;;;31.42;16.48;;;;;;;;;;5128288;27;20047;-62
2022/01/24 07:01:01;;;;;;;29.17;15.10;;;;;;;;;;5126720;27;20048;-62
2022/01/24 07:03:27;;;;;;;25.42;14.35;;;;;;;;;;5130548;28;20123;-63
2022/01/24 07:05:54;;;;;;;29.35;16.52;;;;;;;;;;5128232;27;20083;-62
2022/01/24 07:08:20;;;;;;;31.67;16.70;;;;;;;;;;5127187;27;20045;-62
2022/01/24 07:10:46;;;;;;;37.55;17.98;;;;;;;;;;5129026;27;20135;-63
2022/01/24 07:13:12;;;;;;;36.05;19.38;;;;;;;;;;5131532;27;20031;-62
2022/01/24 07:15:44;;;;;;;35.97;18.30;;;;;;;;;;5131984;27;20083;-61
2022/01/24 07:20:55;;;;;;;34.30;18.60;;;;;;;;;;5134888;27;20436;-62
2022/01/24 07:23:21;;;;;;;46.03;22.73;;;;;;;;;;5134742;27;20042;-60
2022/01/24 07:25:47;;;;;;;40.92;20.95;;;;;;;;;;5131438;27;20031;-62
2022/01/24 07:28:13;;;;;;;38.13;21.55;;;;;;;;;;5133051;27;20122;-61
2022/01/24 07:30:40;;;;;;;45.88;24.23;;;;;;;;;;5131868;27;20039;-62
2022/01/24 07:33:06;;;;;;;50.90;25.23;;;;;;;;;;5134096;27;20043;-61
2022/01/24 07:35:32;;;;;;;45.85;24.50;;;;;;;;;;5132628;27;20039;-63
2022/01/24 07:37:58;;;;;;;47.80;23.48;;;;;;;;;;5133210;27;20039;-62
2022/01/24 07:40:25;;;;;;;51.47;26.00;;;;;;;;;;5134493;27;20074;-62
2022/01/24 07:45:20;;;;;;;49.95;26.05;;;;;;;;;;5132705;27;20039;-63
2022/01/24 07:47:47;;;;;;;42.92;23.63;;;;;;;;;;5131720;27;20467;-62
2022/01/24 07:50:14;;;;;;;47.13;25.25;;;;;;;;;;5134417;27;20035;-63
2022/01/24 07:52:40;;;;;;;47.60;25.25;;;;;;;;;;5132304;27;20066;-64
2022/01/24 07:55:06;;;;;;;48.17;26.30;;;;;;;;;;5135914;27;20047;-62
2022/01/24 07:57:32;;;;;;;52.50;27.35;;;;;;;;;;5115755;27;20056;-62
2022/01/24 07:59:58;;;;;;;44.50;25.42;;;;;;;;;;5101373;27;20402;-61
2022/01/24 08:02:24;;;;;;;42.25;24.70;;;;;;;;;;5131875;27;20039;-62
2022/01/24 08:04:50;;;;;;;45.92;26.85;;;;;;;;;;5133670;27;20047;-61
2022/01/24 08:07:16;;;;;;;46.45;25.52;;;;;;;;;;5132855;27;20057;-61
2022/01/24 08:09:42;;;;;;;46.05;27.15;;;;;;;;;;5133532;27;20035;-63
2022/01/24 08:12:08;;;;;;;46.22;26.48;;;;;;;;;;5130627;27;20039;-60
2022/01/24 08:14:35;;;;;;;48.20;27.77;;;;;;;;;;5133550;27;20088;-60
2022/01/24 08:17:02;;;;;;;42.78;24.60;;;;;;;;;;5131941;27;20069;-61
2022/01/24 08:19:28;;;;;;;44.55;24.77;;;;;;;;;;5132895;27;20523;-61
2022/01/24 08:21:56;;;;;;;46.17;25.90;;;;;;;;;;5134240;27;20381;-62
2022/01/24 08:24:23;;;;;;;47.65;27.10;;;;;;;;;;5115857;27;20043;-61
2022/01/24 08:26:49;;;;;;;44.17;27.05;;;;;;;;;;5131777;27;20393;-61
2022/01/24 08:29:15;;;;;;;49.47;27.73;;;;;;;;;;5133265;27;20473;-62
2022/01/24 08:31:41;;;;;;;46.55;27.23;;;;;;;;;;5132667;27;20168;-61
2022/01/24 08:34:07;;;;;;;50.63;27.48;;;;;;;;;;5130793;27;20047;-61
2022/01/24 08:36:34;;;;;;;48.08;29.38;;;;;;;;;;5114280;27;20055;-62
2022/01/24 08:39:06;;;;;;;46.22;27.77;;;;;;;;;;5132090;27;20392;-62
2022/01/24 08:41:43;;;;;;;50.70;28.58;;;;;;;;;;5132959;27;20080;-61
2022/01/24 08:46:54;;;;;;;50.90;28.15;;;;;;;;;;5114449;27;20105;-61
2022/01/24 08:49:20;;;;;;;48.75;27.50;;;;;;;;;;5128171;27;20031;-61
2022/01/24 08:51:46;;;;;;;50.20;28.60;;;;;;;;;;5124996;27;20039;-60
2022/01/24 08:54:13;;;;;;;48.70;27.88;;;;;;;;;;5124276;27;20046;-60
2022/01/24 08:56:39;;;;;;;47.95;27.95;;;;;;;;;;5131005;27;20095;-62
2022/01/24 08:59:06;;;;;;;47.10;28.63;;;;;;;;;;5130755;27;20428;-61
2022/01/24 09:01:32;;;;;;;51.00;28.45;;;;;;;;;;5131779;27;20574;-61
2022/01/24 09:03:58;;;;;;;51.80;28.90;;;;;;;;;;5130689;27;20074;-61
2022/01/24 09:06:24;;;;;;;50.60;28.45;;;;;;;;;;5132375;27;20075;-61
2022/01/24 09:08:56;;;;;;;49.05;27.73;;;;;;;;;;5131623;27;20035;-62
2022/01/24 09:11:23;;;;;;;;;;;;;;;;;;5132785;27;20031;-62
2022/01/24 09:13:49;;;;;;;56.28;30.08;;;;;;;;;;5117005;27;20414;-61
2022/01/24 09:16:15;;;;;;;49.13;27.98;;;;;;;;;;5130782;27;20031;-62
2022/01/24 09:18:41;;;;;;;49.55;27.75;;;;;;;;;;5100726;27;20051;-62
2022/01/24 09:21:07;;;;;;;49.78;28.80;;;;;;;;;;5131982;27;20035;-62
2022/01/24 09:23:33;;;;;;;54.42;29.02;;;;;;;;;;5131023;27;20027;-62
2022/01/24 09:25:59;;;;;;;51.53;28.92;;;;;;;;;;5129549;27;20070;-62
2022/01/24 09:28:25;;;;;;;54.83;29.35;;;;;;;;;;5131422;27;20038;-61
2022/01/24 09:30:52;;;;;;;53.97;30.45;;;;;;;;;;5132133;27;20465;-62
2022/01/24 09:33:18;;;;;;;56.50;31.10;;;;;;;;;;5130436;27;20031;-61
2022/01/24 09:35:45;;;;;;;52.60;29.58;;;;;;;;;;5128345;27;20089;-62
2022/01/24 09:38:12;;;;;;;48.95;28.42;;;;;;;;;;5113749;27;20047;-63
2022/01/24 09:40:38;;;;;;;52.65;30.02;;;;;;;;;;5112430;27;20093;-61
2022/01/24 09:43:05;;;;;;;52.70;30.75;;;;;;;;;;5131039;27;20401;-62
2022/01/24 09:45:31;;;;;;;52.20;30.25;;;;;;;;;;5130072;27;20117;-62
2022/01/24 09:47:58;;;;;;;59.67;31.55;;;;;;;;;;5127753;27;20035;-62
2022/01/24 09:50:24;;;;;;;55.55;30.38;;;;;;;;;;5131601;27;20042;-62
2022/01/24 09:52:50;;;;;;;58.63;30.70;;;;;;;;;;5130625;27;20058;-61
2022/01/24 09:55:18;;;;;;;53.97;29.63;;;;;;;;;;5113387;27;20508;-62
2022/01/24 09:57:47;;;;;;;54.38;29.08;;;;;;;;;;5129360;27;20038;-62
2022/01/24 10:00:14;;;;;;;53.28;29.95;;;;;;;;;;5131282;27;20062;-62
2022/01/24 10:02:40;;;;;;;57.33;31.90;;;;;;;;;;5130216;27;20071;-63
2022/01/24 10:05:15;;;;;;;53.70;29.55;;;;;;;;;;5131366;27;20099;-60
2022/01/24 10:07:48;;;;;;;55.92;29.52;;;;;;;;;;5127797;27;20035;-63
2022/01/24 10:10:16;;;;;;;54.55;29.70;;;;;;;;;;5131580;27;20031;-63
2022/01/24 10:17:55;;;;;;;55.28;31.02;;;;;;;;;;5129583;27;20086;-62
2022/01/24 10:20:33;;;;;;;49.45;28.63;;;;;;;;;;5131428;27;20035;-63
2022/01/24 10:23:05;;;;;;;57.30;30.85;;;;;;;;;;5130282;27;20384;-61
2022/01/24 10:25:31;;;;;;;58.00;31.05;;;;;;;;;;5130297;27;20058;-62
2022/01/24 10:28:02;;;;;;;54.55;29.10;;;;;;;;;;5129115;27;20054;-63
2022/01/24 10:30:28;;;;;;;54.78;30.27;;;;;;;;;;5130684;27;20058;-63
2022/01/24 10:32:56;;;;;;;50.05;29.17;;;;;;;;;;5128848;27;20031;-62
2022/01/24 10:35:37;;;;;;;54.10;29.70;;;;;;;;;;5131049;27;20378;-63
2022/01/24 10:38:17;;;;;;;46.75;26.67;;;;;;;;;;5129243;27;20050;-62
2022/01/24 10:40:53;;;;;;;42.75;25.35;;;;;;;;;;5130596;27;20039;-62
2022/01/24 10:43:27;;;;;;;45.22;25.67;;;;;;;;;;5121909;27;20051;-64
2022/01/24 10:45:54;;;;;;;40.72;23.65;;;;;;;;;;5130670;28;20056;-63
2022/01/24 10:48:21;;;;;;;45.72;24.98;;;;;;;;;;5127389;27;20043;-63
2022/01/24 10:50:47;;;;;;;42.60;24.40;;;;;;;;;;5134010;27;20046;-64
2022/01/24 10:53:15;;;;;;;38.17;23.10;;;;;;;;;;5135282;27;20123;-63
2022/01/24 10:55:42;;;;;;;39.05;23.10;;;;;;;;;;5137329;27;20122;-62
2022/01/24 10:58:09;;;;;;;39.08;23.38;;;;;;;;;;5135423;27;20050;-63
2022/01/24 11:00:36;;;;;;;35.75;22.90;;;;;;;;;;5132647;27;20043;-64
2022/01/24 11:03:03;;;;;;;33.72;21.15;;;;;;;;;;5137662;27;20035;-64
2022/01/24 11:05:29;;;;;;;32.63;21.55;;;;;;;;;;5136524;27;20066;-63
2022/01/24 11:07:56;;;;;;;32.72;21.05;;;;;;;;;;5137156;27;20468;-62
2022/01/24 11:10:23;;;;;;;33.60;22.05;;;;;;;;;;5134929;27;20035;-63
2022/01/24 11:12:49;;;;;;;34.80;21.50;;;;;;;;;;5137459;27;20031;-62
2022/01/24 11:15:15;;;;;;;33.58;22.50;;;;;;;;;;5120233;27;20149;-61
2022/01/24 11:17:42;;;;;;;34.45;22.00;;;;;;;;;;5136511;27;20113;-63
2022/01/24 11:20:12;;;;;;;31.30;20.50;;;;;;;;;;5121934;27;20386;-62
2022/01/24 11:22:43;;;;;;;29.90;19.95;;;;;;;;;;5137894;27;20440;-60
2022/01/24 11:25:09;;;;;;;27.85;19.83;;;;;;;;;;5136630;27;20406;-61
2022/01/24 11:27:36;;;;;;;27.42;18.67;;;;;;;;;;5137415;27;20038;-63
2022/01/24 11:30:07;;;;;;;27.15;19.02;;;;;;;;;;5134741;27;20042;-61
2022/01/24 11:32:38;;;;;;;22.83;17.55;;;;;;;;;;5137295;27;20067;-62
2022/01/24 11:35:05;;;;;;;26.02;18.58;;;;;;;;;;5136759;27;20074;-61
2022/01/24 11:37:33;;;;;;;27.58;18.45;;;;;;;;;;5134944;27;20442;-62
2022/01/24 11:40:00;;;;;;;23.55;17.48;;;;;;;;;;5136097;27;20173;-62
2022/01/24 11:42:30;;;;;;;23.45;18.13;;;;;;;;;;5123434;27;20431;-62
2022/01/24 11:45:02;;;;;;;21.92;16.65;;;;;;;;;;5136582;27;20374;-62
2022/01/24 11:47:29;;;;;;;21.70;17.42;;;;;;;;;;5136325;27;20035;-63
2022/01/24 11:49:55;;;;;;;24.55;17.83;;;;;;;;;;5134533;27;20031;-62
2022/01/24 11:52:29;;;;;;;24.40;17.50;;;;;;;;;;5135569;27;20140;-62
2022/01/24 11:55:12;;;;;;;25.85;17.98;;;;;;;;;;5135650;27;20043;-62
2022/01/24 11:57:58;;;;;;;27.08;18.15;;;;;;;;;;5135406;27;20049;-62
2022/01/24 12:00:26;;;;;;;25.50;16.27;;;;;;;;;;5133556;27;20062;-64
2022/01/24 12:02:57;;;;;;;22.23;16.52;;;;;;;;;;5132466;27;20043;-63
2022/01/24 12:05:24;;;;;;;23.17;17.13;;;;;;;;;;5115689;27;20390;-63
2022/01/24 12:07:52;;;;;;;21.40;15.75;;;;;;;;;;5132575;27;20034;-62
2022/01/24 12:10:25;;;;;;;24.98;17.48;;;;;;;;;;5133479;27;20401;-61
2022/01/24 12:12:59;;;;;;;21.40;15.90;;;;;;;;;;5131260;27;20039;-61
2022/01/24 12:15:38;;;;;;;24.67;17.40;;;;;;;;;;5125650;27;20072;-61
2022/01/24 12:18:08;;;;;;;23.67;18.05;;;;;;;;;;5132597;27;20035;-62
2022/01/24 12:20:37;;;;;;;24.15;18.00;;;;;;;;;;5130960;27;20035;-63
2022/01/24 12:23:25;;;;;;;21.63;16.63;;;;;;;;;;5131933;27;20032;-62
2022/01/24 12:25:54;;;;;;;26.75;18.30;;;;;;;;;;5133114;27;20047;-62
2022/01/24 12:28:25;;;;;;;23.67;17.80;;;;;;;;;;5132990;27;20035;-62
2022/01/24 12:31:05;;;;;;;23.55;17.75;;;;;;;;;;5131066;27;20168;-61
2022/01/24 12:33:40;;;;;;;22.05;17.67;;;;;;;;;;5132945;27;20490;-62
2022/01/24 12:36:11;;;;;;;26.42;18.88;;;;;;;;;;5132468;27;20042;-62
2022/01/24 12:38:42;;;;;;;24.35;18.63;;;;;;;;;;5129334;27;20035;-63
2022/01/24 12:41:29;;;;;;;27.45;18.67;;;;;;;;;;5132549;27;20039;-60
2022/01/24 12:46:16;;;;;;;22.55;17.63;;;;;;;;;;5132999;27;20103;-61
2022/01/24 12:46:45;;;;;;;26.40;18.75;;;;;;;;;;5132913;27;20511;-63
2022/01/24 12:49:11;;;;;;;22.95;17.77;;;;;;;;;;5133029;27;20062;-61
2022/01/24 12:51:37;;;;;;;23.15;16.80;;;;;;;;;;5130101;27;20067;-60
2022/01/24 12:54:04;;;;;;;23.65;18.10;;;;;;;;;;5131852;27;20555;-61
2022/01/24 12:56:31;;;;;;;23.55;18.25;;;;;;;;;;5131568;27;20087;-62
2022/01/24 12:58:57;;;;;;;25.00;19.38;;;;;;;;;;5131026;27;20051;-61
2022/01/24 13:01:29;;;;;;;23.45;17.85;;;;;;;;;;5129060;27;20086;-61
2022/01/24 13:04:00;;;;;;;23.98;17.10;;;;;;;;;;5130814;27;20072;-61
2022/01/24 13:06:28;;;;;;;22.60;17.48;;;;;;;;;;5130725;27;20462;-61
2022/01/24 13:08:54;;;;;;;20.88;16.10;;;;;;;;;;5132186;27;20472;-61
2022/01/24 13:11:21;;;;;;;20.63;16.40;;;;;;;;;;5132203;27;20045;-61
2022/01/24 13:14:01;;;;;;;19.42;15.70;;;;;;;;;;5131946;27;20118;-60
2022/01/24 13:22:26;;;;;;;20.88;16.98;;;;;;;;;;5129995;27;20043;-62
2022/01/24 13:25:02;;;;;;;21.52;16.60;;;;;;;;;;5131092;27;20050;-60
2022/01/24 13:27:54;;;;;;;19.73;15.43;;;;;;;;;;5132650;27;20512;-60
2022/01/24 13:30:25;;;;;;;21.27;17.33;;;;;;;;;;5114769;27;20043;-62
2022/01/24 13:32:52;;;;;;;21.85;17.23;;;;;;;;;;5132110;27;20039;-62
2022/01/24 13:35:26;;;;;;;23.27;17.92;;;;;;;;;;5132135;27;20114;-63
2022/01/24 13:37:55;;;;;;;23.83;16.65;;;;;;;;;;5106898;27;20529;-62
2022/01/24 13:40:31;;;;;;;23.35;17.10;;;;;;;;;;5116878;27;20035;-59
2022/01/24 13:42:57;;;;;;;22.40;16.42;;;;;;;;;;5130164;27;20070;-59
2022/01/24 13:45:24;;;;;;;22.10;16.77;;;;;;;;;;5130503;27;20056;-61
2022/01/24 13:47:56;;;;;;;22.48;17.17;;;;;;;;;;5131908;27;20131;-61
2022/01/24 13:50:23;;;;;;;22.33;17.17;;;;;;;;;;5131930;27;20378;-59
2022/01/24 13:52:49;;;;;;;25.48;17.58;;;;;;;;;;5131790;27;20031;-61
2022/01/24 13:55:16;;;;;;;22.50;16.80;;;;;;;;;;5132350;27;20126;-59
2022/01/24 13:57:47;;;;;;;22.25;16.48;;;;;;;;;;5130122;27;20043;-64
2022/01/24 14:00:15;;;;;;;23.00;16.60;;;;;;;;;;5131747;27;20058;-63
2022/01/24 14:02:41;;;;;;;23.88;17.65;;;;;;;;;;5128724;27;20039;-61
2022/01/24 14:05:09;;;;;;;28.90;17.48;;;;;;;;;;5131639;27;20039;-62
2022/01/24 14:07:41;;;;;;;23.70;17.33;;;;;;;;;;5131917;27;20106;-62
2022/01/24 14:10:09;;;;;;;21.63;16.08;;;;;;;;;;5129796;27;20046;-60
2022/01/24 14:12:53;;;;;;;24.80;16.52;;;;;;;;;;5120356;27;20408;-61
2022/01/24 14:15:32;;;;;;;23.23;17.13;;;;;;;;;;5127452;27;20068;-61
2022/01/24 14:18:21;;;;;;;22.23;16.60;;;;;;;;;;5127032;27;20039;-60
2022/01/24 14:20:48;;;;;;;20.98;16.67;;;;;;;;;;5129448;27;20039;-61
2022/01/24 14:23:35;;;;;;;20.13;15.73;;;;;;;;;;5130484;27;20515;-60
2022/01/24 14:26:14;;;;;;;22.63;18.00;;;;;;;;;;5112388;27;20047;-60
2022/01/24 14:28:40;;;;;;;25.80;18.38;;;;;;;;;;5111510;27;20046;-60
2022/01/24 14:31:12;;;;;;;24.63;19.40;;;;;;;;;;5129488;27;20035;-60
2022/01/24 14:33:38;;;;;;;23.35;18.15;;;;;;;;;;5119996;27;20058;-61
2022/01/24 14:36:08;;;;;;;24.05;17.63;;;;;;;;;;5130700;27;20409;-60
2022/01/24 14:38:39;;;;;;;23.88;17.65;;;;;;;;;;5130872;27;20188;-63
2022/01/24 14:41:10;;;;;;;25.77;18.38;;;;;;;;;;5130023;27;20160;-60
2022/01/24 14:46:23;;;;;;;23.13;17.85;;;;;;;;;;5130285;28;20661;-61
2022/01/24 14:48:52;;;;;;;24.65;18.58;;;;;;;;;;5112778;28;20503;-60
2022/01/24 14:51:22;;;;;;;25.95;18.98;;;;;;;;;;5129623;28;20046;-60
2022/01/24 14:53:49;;;;;;;25.45;18.42;;;;;;;;;;5129554;27;20493;-60
2022/01/24 14:56:15;;;;;;;23.50;18.38;;;;;;;;;;5130716;28;20485;-62
2022/01/24 14:58:42;;;;;;;21.80;16.70;;;;;;;;;;5130497;28;20136;-60
2022/01/24 15:01:08;;;;;;;23.38;16.95;;;;;;;;;;5130642;28;20039;-60
2022/01/24 15:03:35;;;;;;;23.48;17.42;;;;;;;;;;5130377;28;20035;-62
2022/01/24 15:06:01;;;;;;;27.70;19.20;;;;;;;;;;5130421;27;20114;-61
2022/01/24 15:08:28;;;;;;;30.27;21.77;;;;;;;;;;5130500;28;20035;-61
2022/01/24 15:10:54;;;;;;;49.90;32.08;;;;;;;;;;5130591;27;20039;-64
2022/01/24 15:13:24;;;;;;;35.60;25.35;;;;;;;;;;5112187;28;20584;-62
2022/01/24 15:16:12;;;;;;;48.70;35.40;;;;;;;;;;5129954;27;20050;-62
2022/01/24 15:24:27;;;;;;;27.65;19.40;;;;;;;;;;5130117;28;20039;-63
2022/01/24 15:26:54;;;;;;;26.35;19.20;;;;;;;;;;5130593;27;20565;-61
2022/01/24 15:29:20;;;;;;;25.92;17.85;;;;;;;;;;5130241;28;20115;-60
2022/01/24 15:31:46;;;;;;;28.50;20.75;;;;;;;;;;5130331;28;20034;-61
2022/01/24 15:34:14;;;;;;;26.88;19.98;;;;;;;;;;5130462;27;20031;-61
2022/01/24 15:36:41;;;;;;;28.73;20.15;;;;;;;;;;5125015;27;20046;-62
2022/01/24 15:39:07;;;;;;;30.67;20.83;;;;;;;;;;5115621;27;20394;-61
2022/01/24 15:41:43;;;;;;;30.20;22.38;;;;;;;;;;5134024;27;20489;-60
2022/01/24 15:44:32;;;;;;;27.08;20.25;;;;;;;;;;5115649;27;20086;-61
2022/01/24 15:49:32;;;;;;;27.58;19.50;;;;;;;;;;5132799;27;20049;-61
2022/01/24 15:51:58;;;;;;;27.40;20.02;;;;;;;;;;5129124;27;20038;-62
2022/01/24 15:54:26;;;;;;;28.85;19.70;;;;;;;;;;5119888;27;20047;-61
2022/01/24 15:59:38;;;;;;;27.92;20.42;;;;;;;;;;5133004;27;20509;-60
2022/01/24 16:02:04;;;;;;;26.65;20.50;;;;;;;;;;5115386;27;20420;-61
2022/01/24 16:04:30;;;;;;;27.85;20.92;;;;;;;;;;5134103;27;20039;-59
2022/01/24 16:06:56;;;;;;;27.48;20.17;;;;;;;;;;5128393;27;20039;-61
2022/01/24 16:09:22;;;;;;;29.90;20.55;;;;;;;;;;5131995;27;20035;-59
2022/01/24 16:11:49;;;;;;;28.45;21.25;;;;;;;;;;5133774;27;20114;-60
2022/01/24 16:14:15;;;;;;;32.35;22.55;;;;;;;;;;5133639;27;20047;-59
2022/01/24 16:16:41;;;;;;;31.50;22.15;;;;;;;;;;5133279;27;20031;-59
2022/01/24 16:19:07;;;;;;;30.00;21.45;;;;;;;;;;5131491;27;20107;-60
2022/01/24 16:21:48;;;;;;;31.13;21.95;;;;;;;;;;5131104;27;20054;-60
2022/01/24 16:26:43;;;;;;;31.80;22.48;;;;;;;;;;5132747;27;20031;-60
2022/01/24 16:29:10;;;;;;;37.03;24.20;;;;;;;;;;5133229;27;20089;-60
2022/01/24 16:31:36;;;;;;;34.95;23.77;;;;;;;;;;5131034;27;20070;-60
2022/01/24 16:34:05;;;;;;;31.30;22.63;;;;;;;;;;5133264;27;20042;-59
2022/01/24 16:36:31;;;;;;;30.60;21.55;;;;;;;;;;5133084;27;20035;-61
2022/01/24 16:38:57;;;;;;;31.65;23.00;;;;;;;;;;5132965;27;20035;-61
2022/01/24 16:41:34;;;;;;;34.63;22.58;;;;;;;;;;5131581;27;20440;-61